Time;durP1;ratioP1;P1;durP2;ratioP2;P2;SDS_P1;SDS_P2;PMS_P1;PMS_P2;Temp;Humidity;BMP_temperature;BMP_pressure;BME280_temperature;BME280_humidity;BME280_pressure;Samples;Min_cycle;Max_cycle;Signal;HPM_P1;HPM_P2
2022/08/30 00:02:11;;;;;;;7.83;3.00;;;24.40;44.20;;;;;;7388115;19;19931;-85
2022/08/30 00:04:40;;;;;;;16.13;3.10;;;24.30;44.10;;;;;;7380752;19;20023;-85
2022/08/30 00:07:09;;;;;;;7.03;2.95;;;24.40;44.30;;;;;;7378984;19;20018;-86
2022/08/30 00:09:37;;;;;;;14.32;3.30;;;24.40;44.10;;;;;;7379084;19;20082;-84
2022/08/30 00:12:09;;;;;;;9.35;3.65;;;24.50;44.00;;;;;;7392775;19;20018;-84
2022/08/30 00:14:39;;;;;;;10.07;2.90;;;24.50;44.00;;;;;;7371828;19;20022;-85
2022/08/30 00:17:07;;;;;;;13.98;3.30;;;24.50;44.00;;;;;;7370453;19;20619;-85
2022/08/30 00:19:36;;;;;;;11.25;3.42;;;24.40;44.00;;;;;;7368227;19;20440;-84
2022/08/30 00:22:05;;;;;;;9.60;3.03;;;24.60;44.10;;;;;;7368280;19;20018;-84
2022/08/30 00:24:34;;;;;;;11.45;3.38;;;24.60;43.80;;;;;;7368369;19;20019;-86
2022/08/30 00:27:03;;;;;;;11.55;3.33;;;24.40;44.00;;;;;;7394367;19;20074;-86
2022/08/30 00:29:34;;;;;;;12.20;2.85;;;24.40;44.10;;;;;;7372410;19;20027;-86
2022/08/30 00:32:04;;;;;;;;;;;24.40;44.00;;;;;;7373390;19;20433;-85
2022/08/30 00:34:33;;;;;;;7.47;3.13;;;24.40;44.20;;;;;;7372762;19;20652;-85
2022/08/30 00:37:02;;;;;;;11.38;3.45;;;24.50;43.80;;;;;;7375673;19;20019;-86
2022/08/30 00:39:30;;;;;;;9.63;3.85;;;24.20;44.30;;;;;;7403017;19;20011;-84
2022/08/30 00:41:59;;;;;;;14.68;3.40;;;24.30;44.20;;;;;;7404096;19;20018;-86
2022/08/30 00:44:28;;;;;;;9.73;3.83;;;24.20;44.20;;;;;;7380021;19;20014;-86
2022/08/30 00:46:59;;;;;;;9.50;3.47;;;24.30;44.50;;;;;;7380913;19;20007;-84
2022/08/30 00:49:29;;;;;;;10.90;3.15;;;24.30;44.50;;;;;;7381167;19;20540;-87
2022/08/30 00:51:59;;;;;;;9.80;3.00;;;24.40;43.90;;;;;;7378565;19;20058;-88
2022/08/30 00:54:28;;;;;;;10.52;3.42;;;24.10;44.10;;;;;;7406537;19;20031;-87
2022/08/30 00:56:57;;;;;;;11.77;3.20;;;23.80;44.60;;;;;;7384986;19;20437;-87
2022/08/30 00:59:27;;;;;;;11.25;3.13;;;23.90;44.90;;;;;;7381342;19;20481;-87
2022/08/30 01:01:59;;;;;;;16.90;3.33;;;24.00;44.70;;;;;;7380551;19;20014;-87
2022/08/30 01:04:28;;;;;;;13.27;3.03;;;24.20;44.60;;;;;;7378871;19;20319;-87
2022/08/30 01:06:59;;;;;;;9.13;2.80;;;24.20;44.30;;;;;;7379359;19;20035;-86
2022/08/30 01:09:28;;;;;;;11.95;3.33;;;24.20;44.30;;;;;;7402902;19;20029;-86
2022/08/30 01:11:58;;;;;;;12.75;2.78;;;24.20;44.10;;;;;;7379631;19;20032;-86
2022/08/30 01:14:27;;;;;;;10.68;3.20;;;23.90;44.40;;;;;;7377303;19;20010;-86
2022/08/30 01:17:00;;;;;;;23.40;4.47;;;23.90;45.10;;;;;;7374839;19;20543;-85
2022/08/30 01:19:40;;;;;;;21.63;4.65;;;23.90;53.20;;;;;;7372820;19;20100;-86
2022/08/30 01:22:18;;;;;;;15.57;4.35;;;23.90;53.90;;;;;;7372772;19;20014;-87
2022/08/30 01:24:55;;;;;;;11.60;4.07;;;23.90;56.60;;;;;;7374790;19;20455;-88
2022/08/30 01:27:26;;;;;;;13.63;3.95;;;23.90;56.10;;;;;;7396669;19;20070;-87
2022/08/30 01:29:56;;;;;;;;;;;23.80;53.90;;;;;;7375640;19;20018;-88
2022/08/30 01:32:27;;;;;;;15.68;3.70;;;23.70;56.10;;;;;;7375527;19;19914;-88
2022/08/30 01:34:57;;;;;;;10.43;4.18;;;23.80;56.00;;;;;;7375758;19;20021;-88
2022/08/30 01:37:30;;;;;;;13.75;4.05;;;23.80;57.80;;;;;;7373059;19;20444;-88
2022/08/30 01:40:02;;;;;;;18.83;4.38;;;23.80;58.90;;;;;;7376200;19;20584;-88
2022/08/30 01:42:31;;;;;;;12.27;4.15;;;23.80;59.30;;;;;;7388797;19;20082;-87
2022/08/30 01:45:00;;;;;;;15.32;4.60;;;23.80;58.50;;;;;;7395566;19;20085;-88
2022/08/30 01:47:29;;;;;;;22.55;5.50;;;23.70;59.50;;;;;;7374621;19;20022;-88
2022/08/30 01:49:57;;;;;;;9.10;4.60;;;23.50;58.40;;;;;;7377142;19;20022;-88
2022/08/30 01:52:27;;;;;;;11.52;4.70;;;23.40;57.10;;;;;;7379107;19;20017;-88
2022/08/30 01:54:56;;;;;;;17.92;5.18;;;23.20;57.70;;;;;;7381090;19;20090;-88
2022/08/30 01:57:27;;;;;;;8.65;4.28;;;22.70;59.20;;;;;;7393557;19;20386;-87
2022/08/30 02:00:00;;;;;;;11.85;4.20;;;22.70;60.20;;;;;;7376585;19;20007;-87
2022/08/30 02:02:30;;;;;;;11.00;4.20;;;22.80;59.60;;;;;;7376168;19;20037;-86
2022/08/30 02:04:59;;;;;;;11.32;3.95;;;23.00;59.60;;;;;;7378659;19;20015;-87
2022/08/30 02:07:28;;;;;;;14.82;4.25;;;23.10;56.60;;;;;;7378240;19;20011;-87
2022/08/30 02:09:58;;;;;;;10.55;4.03;;;23.00;56.50;;;;;;7376337;19;20010;-87
2022/08/30 02:12:29;;;;;;;11.55;4.10;;;22.90;56.50;;;;;;7395445;19;20046;-86
2022/08/30 02:14:58;;;;;;;11.88;3.58;;;22.90;56.80;;;;;;7375410;19;20077;-86
2022/08/30 02:17:27;;;;;;;9.23;4.25;;;23.10;55.60;;;;;;7373914;19;20010;-86
2022/08/30 02:19:55;;;;;;;11.13;3.90;;;23.20;55.60;;;;;;7374171;19;20009;-86
2022/08/30 02:22:24;;;;;;;9.57;3.58;;;23.20;52.00;;;;;;7372739;19;20015;-85
2022/08/30 02:24:53;;;;;;;9.07;3.65;;;23.30;54.20;;;;;;7372379;19;20098;-86
2022/08/30 02:27:22;;;;;;;13.70;3.70;;;23.30;55.70;;;;;;7394466;19;20054;-86
2022/08/30 02:29:54;;;;;;;18.60;3.90;;;23.40;55.60;;;;;;7370515;19;20017;-85
2022/08/30 02:32:22;;;;;;;12.00;3.45;;;23.40;52.30;;;;;;7370460;19;20545;-86
2022/08/30 02:34:51;;;;;;;7.80;3.17;;;23.10;50.40;;;;;;7371557;19;20015;-86
2022/08/30 02:37:20;;;;;;;9.20;3.47;;;22.90;52.30;;;;;;7371444;19;20030;-85
2022/08/30 02:39:48;;;;;;;11.55;3.95;;;22.80;52.80;;;;;;7373234;19;20019;-86
2022/08/30 02:42:17;;;;;;;9.05;3.63;;;22.80;51.10;;;;;;7392100;19;20015;-86
2022/08/30 02:44:46;;;;;;;11.50;3.55;;;22.50;52.10;;;;;;7371513;19;20094;-86
2022/08/30 02:47:21;;;;;;;9.02;3.42;;;22.50;52.20;;;;;;7370293;19;20333;-87
2022/08/30 02:49:49;;;;;;;12.77;3.92;;;22.70;51.80;;;;;;7372654;19;20139;-86
2022/08/30 02:52:18;;;;;;;8.88;3.72;;;22.70;52.30;;;;;;7372943;19;20017;-86
2022/08/30 02:54:47;;;;;;;24.88;4.40;;;22.60;50.80;;;;;;7375132;19;20027;-86
2022/08/30 02:57:16;;;;;;;13.95;4.68;;;22.50;51.40;;;;;;7393351;19;20449;-85
2022/08/30 02:59:46;;;;;;;9.52;3.78;;;22.50;52.80;;;;;;7371132;19;20026;-86
2022/08/30 03:02:18;;;;;;;11.47;3.37;;;22.60;52.80;;;;;;7371379;19;20321;-86
2022/08/30 03:04:50;;;;;;;10.27;3.97;;;22.60;52.90;;;;;;7373016;19;20018;-86
2022/08/30 03:07:19;;;;;;;11.75;3.35;;;22.70;52.80;;;;;;7368895;19;20031;-86
2022/08/30 03:09:48;;;;;;;16.17;3.70;;;22.70;51.80;;;;;;7372502;19;20015;-87
2022/08/30 03:12:17;;;;;;;13.68;3.67;;;22.90;52.00;;;;;;7393733;19;20090;-86
2022/08/30 03:14:46;;;;;;;9.02;3.80;;;23.00;51.90;;;;;;7371770;19;20019;-86
2022/08/30 03:17:18;;;;;;;11.40;3.55;;;23.00;51.10;;;;;;7372719;19;20010;-86
2022/08/30 03:19:47;;;;;;;10.35;3.28;;;23.10;50.70;;;;;;7373990;19;20018;-86
2022/08/30 03:22:16;;;;;;;17.08;4.22;;;23.10;50.90;;;;;;7374033;19;20011;-86
2022/08/30 03:24:45;;;;;;;7.22;3.58;;;23.30;51.20;;;;;;7372526;19;20716;-86
2022/08/30 03:27:14;;;;;;;9.50;3.85;;;23.40;51.30;;;;;;7390837;19;20069;-85
2022/08/30 03:29:43;;;;;;;10.50;3.70;;;23.40;51.50;;;;;;7370775;19;20034;-86
2022/08/30 03:32:12;;;;;;;12.25;3.80;;;23.60;51.90;;;;;;7370649;19;20028;-85
2022/08/30 03:34:44;;;;;;;9.80;3.63;;;23.50;51.50;;;;;;7372384;19;20085;-86
2022/08/30 03:37:12;;;;;;;;;;;23.50;52.50;;;;;;7374889;19;20122;-86
2022/08/30 03:39:41;;;;;;;11.23;4.18;;;23.50;51.60;;;;;;7370528;19;19994;-86
2022/08/30 03:42:10;;;;;;;12.13;3.95;;;23.40;51.90;;;;;;7392244;19;20035;-85
2022/08/30 03:44:39;;;;;;;9.38;4.05;;;23.50;52.20;;;;;;7369613;19;20458;-86
2022/08/30 03:47:08;;;;;;;14.32;4.63;;;23.40;52.10;;;;;;7370371;19;20169;-85
2022/08/30 03:49:37;;;;;;;6.90;3.40;;;23.20;52.20;;;;;;7370696;19;20007;-86
2022/08/30 03:52:12;;;;;;;15.30;4.03;;;23.30;51.70;;;;;;7370108;19;20581;-86
2022/08/30 03:54:41;;;;;;;8.07;3.80;;;23.30;52.20;;;;;;7374898;19;20401;-86
2022/08/30 03:57:10;;;;;;;8.75;3.97;;;23.20;52.10;;;;;;7394540;19;20090;-85
2022/08/30 03:59:38;;;;;;;12.93;3.80;;;23.20;52.70;;;;;;7372171;19;20081;-86
2022/08/30 04:02:07;;;;;;;13.25;4.28;;;22.90;52.70;;;;;;7371400;19;20018;-86
2022/08/30 04:04:36;;;;;;;14.43;4.13;;;22.80;52.60;;;;;;7374316;19;20027;-86
2022/08/30 04:07:05;;;;;;;7.15;3.92;;;22.70;52.90;;;;;;7375813;19;20464;-86
2022/08/30 04:09:36;;;;;;;16.00;4.22;;;22.80;53.20;;;;;;7380530;19;20010;-86
2022/08/30 04:12:06;;;;;;;9.10;3.70;;;22.90;53.50;;;;;;7393463;19;20344;-86
2022/08/30 04:14:35;;;;;;;12.55;4.40;;;23.10;53.60;;;;;;7371715;19;20076;-87
2022/08/30 04:17:03;;;;;;;9.95;4.18;;;22.80;52.90;;;;;;7371966;19;20476;-87
2022/08/30 04:19:32;;;;;;;12.25;4.40;;;22.70;53.40;;;;;;7372156;19;20031;-87
2022/08/30 04:22:01;;;;;;;13.88;4.13;;;22.50;54.00;;;;;;7372574;19;20470;-88
2022/08/30 04:24:29;;;;;;;14.70;5.18;;;22.50;53.60;;;;;;7393209;19;20087;-87
2022/08/30 04:27:01;;;;;;;10.90;4.15;;;22.30;54.20;;;;;;7370713;19;20624;-87
2022/08/30 04:29:30;;;;;;;10.80;4.47;;;22.20;54.30;;;;;;7371435;19;20126;-87
2022/08/30 04:31:59;;;;;;;19.35;4.60;;;22.20;54.50;;;;;;7371185;19;20067;-86
2022/08/30 04:34:27;;;;;;;19.42;4.85;;;22.10;54.80;;;;;;7371317;19;20110;-87
2022/08/30 04:36:56;;;;;;;17.63;4.90;;;22.00;55.20;;;;;;7378713;19;20043;-87
2022/08/30 04:42:03;;;;;;;6.82;4.15;;;22.00;54.90;;;;;;7362388;19;20253;-88
2022/08/30 04:44:34;;;;;;;13.27;4.28;;;22.20;55.30;;;;;;7417351;19;20047;-86
2022/08/30 04:47:03;;;;;;;13.43;4.27;;;22.40;55.10;;;;;;7370650;19;20166;-80
2022/08/30 04:49:31;;;;;;;9.55;4.30;;;22.60;54.50;;;;;;7365664;19;20025;-77
2022/08/30 04:52:00;;;;;;;9.45;4.18;;;22.60;53.80;;;;;;7367108;19;20011;-80
2022/08/30 04:54:29;;;;;;;291.38;214.18;;;22.80;53.20;;;;;;7386319;19;20018;-76
2022/08/30 04:56:59;;;;;;;25.13;12.77;;;22.90;53.60;;;;;;7364218;19;20070;-76
2022/08/30 04:59:31;;;;;;;25.10;10.57;;;22.90;53.20;;;;;;7364866;19;20006;-76
2022/08/30 05:02:00;;;;;;;118.68;79.53;;;23.00;53.70;;;;;;7364745;19;20018;-76
2022/08/30 05:04:29;;;;;;;23.88;13.38;;;22.90;54.20;;;;;;7365741;19;20077;-76
2022/08/30 05:07:01;;;;;;;20.73;8.02;;;22.80;54.00;;;;;;7365055;19;20016;-78
2022/08/30 05:09:30;;;;;;;15.82;4.70;;;22.80;54.70;;;;;;7386221;19;20082;-78
2022/08/30 05:11:59;;;;;;;20.58;5.13;;;22.80;55.00;;;;;;7366253;19;20035;-79
2022/08/30 05:14:30;;;;;;;18.17;5.28;;;22.90;55.00;;;;;;7363721;19;20422;-78
2022/08/30 05:16:58;;;;;;;;;;;22.90;55.00;;;;;;7366046;19;20619;-79
2022/08/30 05:19:27;;;;;;;13.38;4.60;;;22.90;55.00;;;;;;7364762;19;19921;-79
2022/08/30 05:21:56;;;;;;;14.07;4.93;;;23.00;55.00;;;;;;7366757;19;20102;-80
2022/08/30 05:24:24;;;;;;;18.35;5.07;;;23.00;55.00;;;;;;7389001;19;20380;-78
2022/08/30 05:26:53;;;;;;;10.38;4.85;;;22.90;55.40;;;;;;7364805;19;20014;-79
2022/08/30 05:29:22;;;;;;;16.80;5.10;;;23.10;55.60;;;;;;7367839;19;20027;-80
2022/08/30 05:31:53;;;;;;;286.00;211.35;;;23.00;55.10;;;;;;7370099;19;20015;-79
2022/08/30 05:34:22;;;;;;;;;;;23.00;54.50;;;;;;7374995;19;20018;-87
2022/08/30 05:36:51;;;;;;;15.50;6.85;;;22.90;54.10;;;;;;7375085;19;19924;-86
2022/08/30 05:39:20;;;;;;;12.10;4.75;;;22.90;54.30;;;;;;7397391;19;20106;-84
2022/08/30 05:41:49;;;;;;;18.27;4.97;;;22.80;54.30;;;;;;7374262;19;20043;-81
2022/08/30 05:44:18;;;;;;;20.00;4.93;;;22.70;54.70;;;;;;7374830;19;20010;-83
2022/08/30 05:46:47;;;;;;;163.85;119.93;;;22.70;54.60;;;;;;7372006;19;20462;-84
2022/08/30 05:49:19;;;;;;;15.35;6.43;;;22.80;54.50;;;;;;7368339;19;20552;-78
2022/08/30 05:51:47;;;;;;;;;;;22.70;54.70;;;;;;7373023;19;20396;-84
2022/08/30 05:54:17;;;;;;;15.88;4.93;;;22.70;55.30;;;;;;7394501;19;19919;-84
2022/08/30 05:56:47;;;;;;;15.05;5.22;;;22.60;55.10;;;;;;7375126;19;20097;-83
2022/08/30 05:59:17;;;;;;;16.63;5.13;;;22.70;55.30;;;;;;7370655;19;20010;-83
2022/08/30 06:01:48;;;;;;;15.70;5.15;;;22.60;54.80;;;;;;7372153;19;20378;-84
2022/08/30 06:04:19;;;;;;;16.08;5.18;;;22.70;54.70;;;;;;7372730;19;20073;-83
2022/08/30 06:06:48;;;;;;;12.40;4.90;;;22.60;54.00;;;;;;7371151;19;20031;-82
2022/08/30 06:09:17;;;;;;;20.80;5.65;;;22.30;55.10;;;;;;7393761;19;20024;-82
2022/08/30 06:11:47;;;;;;;16.48;5.07;;;22.50;55.20;;;;;;7369807;19;20687;-83
2022/08/30 06:14:16;;;;;;;10.80;5.10;;;22.60;55.60;;;;;;7371682;19;20074;-82
2022/08/30 06:16:46;;;;;;;18.92;5.72;;;22.70;55.10;;;;;;7371073;19;20010;-82
2022/08/30 06:19:16;;;;;;;12.43;5.05;;;22.70;54.30;;;;;;7372758;19;20050;-82
2022/08/30 06:21:51;;;;;;;11.30;5.00;;;22.80;54.20;;;;;;7371896;19;20025;-82
2022/08/30 06:24:22;;;;;;;17.83;5.38;;;22.90;54.00;;;;;;7391367;19;20322;-82
2022/08/30 06:26:51;;;;;;;17.13;5.28;;;23.00;53.40;;;;;;7370395;19;20349;-82
2022/08/30 06:29:21;;;;;;;17.33;5.53;;;22.80;53.10;;;;;;7369592;19;20014;-83
2022/08/30 06:31:51;;;;;;;13.43;4.57;;;22.90;53.50;;;;;;7371569;19;20017;-82
2022/08/30 06:34:20;;;;;;;11.32;4.93;;;22.80;53.60;;;;;;7372227;19;20010;-82
2022/08/30 06:36:51;;;;;;;11.63;5.57;;;22.60;53.30;;;;;;7372208;19;20175;-82
2022/08/30 06:39:20;;;;;;;;;;;22.60;53.10;;;;;;7393616;19;20097;-82
2022/08/30 06:41:48;;;;;;;12.95;5.25;;;22.70;53.50;;;;;;7370581;19;19995;-83
2022/08/30 06:44:18;;;;;;;17.05;5.00;;;22.50;53.20;;;;;;7369297;19;20015;-83
2022/08/30 06:46:47;;;;;;;13.77;4.80;;;22.20;53.80;;;;;;7370262;19;20029;-83
2022/08/30 06:49:16;;;;;;;10.02;4.63;;;22.40;54.10;;;;;;7371789;19;20018;-83
2022/08/30 06:51:44;;;;;;;15.48;5.00;;;22.20;53.60;;;;;;7373050;19;20018;-83
2022/08/30 06:54:16;;;;;;;16.10;5.07;;;22.40;54.50;;;;;;7390579;19;20010;-83
2022/08/30 06:56:45;;;;;;;;;;;22.40;53.40;;;;;;7372169;19;20093;-83
2022/08/30 06:59:14;;;;;;;13.07;5.05;;;22.50;53.40;;;;;;7370653;19;19915;-83
2022/08/30 07:01:42;;;;;;;14.13;5.00;;;22.60;53.50;;;;;;7370563;19;20013;-83
2022/08/30 07:04:11;;;;;;;11.48;5.32;;;22.60;52.20;;;;;;7368921;19;20036;-83
2022/08/30 07:06:40;;;;;;;18.15;4.60;;;22.70;52.40;;;;;;7371186;19;20046;-83
2022/08/30 07:09:09;;;;;;;17.40;5.97;;;22.80;52.00;;;;;;7390815;19;20042;-83
2022/08/30 07:11:40;;;;;;;20.63;4.55;;;22.90;52.30;;;;;;7370071;19;20075;-83
2022/08/30 07:14:09;;;;;;;21.75;4.88;;;23.10;51.40;;;;;;7369601;19;20010;-83
2022/08/30 07:16:38;;;;;;;17.10;4.75;;;23.00;50.80;;;;;;7370756;19;20040;-83
2022/08/30 07:19:05;;;;;;;19.40;5.38;;;23.10;51.10;;;;;;7369807;19;20018;-83
2022/08/30 07:21:37;;;;;;;15.18;4.65;;;22.70;51.40;;;;;;7370366;19;20014;-82
2022/08/30 07:24:08;;;;;;;16.88;4.65;;;22.80;51.60;;;;;;7390000;19;20027;-83
2022/08/30 07:26:45;;;;;;;;;;;23.00;52.20;;;;;;7373673;19;20033;-83
2022/08/30 07:29:14;;;;;;;16.83;5.00;;;23.20;51.80;;;;;;7373460;19;19919;-84
2022/08/30 07:31:43;;;;;;;14.55;4.72;;;23.30;51.70;;;;;;7374355;19;20010;-81
2022/08/30 07:34:12;;;;;;;12.35;4.95;;;23.40;51.50;;;;;;7371032;19;20178;-81
2022/08/30 07:36:41;;;;;;;18.00;5.00;;;23.60;51.90;;;;;;7374035;19;20036;-82
2022/08/30 07:39:10;;;;;;;17.48;4.97;;;23.70;51.50;;;;;;7406444;19;20007;-81
2022/08/30 07:41:43;;;;;;;14.73;5.72;;;23.80;51.60;;;;;;7388073;19;20032;-82
2022/08/30 07:44:12;;;;;;;18.00;5.55;;;23.80;51.60;;;;;;7380169;19;20025;-82
2022/08/30 07:46:41;;;;;;;132.85;72.25;;;23.80;51.70;;;;;;7374293;19;20035;-82
2022/08/30 07:49:11;;;;;;;55.30;30.63;;;23.90;52.10;;;;;;7381158;19;20035;-87
2022/08/30 07:51:41;;;;;;;44.55;21.73;;;23.90;52.00;;;;;;7398663;19;20046;-84
2022/08/30 10:02:56;;;;;;;24.48;5.97;;;26.30;47.90;;;;;;7371581;19;20332;-81
2022/08/30 10:05:33;;;;;;;24.25;6.00;;;26.30;47.30;;;;;;7372031;19;20441;-81
2022/08/30 10:08:10;;;;;;;19.60;5.95;;;26.30;46.90;;;;;;7370614;19;20433;-82
2022/08/30 10:10:45;;;;;;;14.95;5.35;;;26.30;46.90;;;;;;7372818;19;20027;-82
2022/08/30 10:13:38;;;;;;;16.38;5.53;;;26.30;47.00;;;;;;7371598;19;20045;-81
2022/08/30 10:16:21;;;;;;;16.48;6.60;;;26.40;47.80;;;;;;7369187;19;20022;-81
2022/08/30 10:19:12;;;;;;;18.00;6.10;;;26.10;47.60;;;;;;7373298;19;20014;-83
2022/08/30 10:21:46;;;;;;;21.83;6.07;;;26.10;47.50;;;;;;7372975;19;20027;-82
2022/08/30 10:24:18;;;;;;;18.45;5.80;;;26.10;49.00;;;;;;7395254;19;20046;-83
2022/08/30 10:26:50;;;;;;;17.65;5.50;;;26.10;47.90;;;;;;7375682;19;20035;-81
2022/08/30 10:29:24;;;;;;;19.25;6.22;;;26.10;48.10;;;;;;7371689;19;20014;-81
2022/08/30 10:31:58;;;;;;;16.15;6.07;;;26.20;49.00;;;;;;7376138;19;20019;-81
2022/08/30 10:34:36;;;;;;;18.17;5.75;;;25.90;48.60;;;;;;7374557;19;20014;-81
2022/08/30 10:37:10;;;;;;;29.25;6.13;;;25.90;49.20;;;;;;7369501;19;20034;-82
2022/08/30 10:39:43;;;;;;;13.35;5.63;;;25.90;49.10;;;;;;7369943;19;20328;-82
2022/08/30 10:42:20;;;;;;;16.75;6.25;;;25.80;49.20;;;;;;7394166;19;20087;-81
2022/08/30 10:44:56;;;;;;;24.73;6.25;;;25.70;49.30;;;;;;7371399;19;20018;-82
2022/08/30 10:47:33;;;;;;;22.88;5.85;;;25.70;49.30;;;;;;7370364;19;20429;-82
2022/08/30 10:50:14;;;;;;;18.75;6.55;;;25.70;49.60;;;;;;7373202;19;20014;-82
2022/08/30 10:52:49;;;;;;;19.38;5.93;;;25.80;49.80;;;;;;7372524;19;20017;-82
2022/08/30 10:55:23;;;;;;;14.77;6.20;;;25.80;49.30;;;;;;7373045;19;20022;-86
2022/08/30 10:57:52;;;;;;;403.73;269.40;;;25.70;49.50;;;;;;7376669;19;20026;-83
2022/08/30 11:00:28;;;;;;;20.02;9.43;;;25.90;49.50;;;;;;7392445;19;20034;-85
2022/08/30 11:03:16;;;;;;;14.68;6.35;;;25.90;49.80;;;;;;7373122;19;20066;-86
2022/08/30 11:06:05;;;;;;;19.75;6.35;;;25.90;50.50;;;;;;7371403;19;20010;-84
2022/08/30 11:08:54;;;;;;;19.63;6.57;;;26.00;49.20;;;;;;7372662;19;20046;-85
2022/08/30 11:11:34;;;;;;;16.42;6.28;;;26.00;48.70;;;;;;7374872;19;20611;-84
2022/08/30 11:14:09;;;;;;;16.83;6.00;;;26.10;49.30;;;;;;7372425;19;20018;-85
2022/08/30 11:16:41;;;;;;;15.65;5.35;;;26.10;49.10;;;;;;7371966;19;20018;-82
2022/08/30 11:19:19;;;;;;;17.45;5.50;;;26.10;48.50;;;;;;7378881;19;20667;-83
2022/08/30 11:21:52;;;;;;;17.42;5.40;;;26.10;48.90;;;;;;7375631;19;20006;-83
2022/08/30 11:24:32;;;;;;;13.80;5.95;;;26.20;48.70;;;;;;7394431;19;20025;-85
2022/08/30 11:27:03;;;;;;;22.63;5.57;;;26.10;48.70;;;;;;7370454;19;20132;-79
2022/08/30 11:55:55;;;;;;;14.82;5.93;;;26.30;47.50;;;;;;7373568;19;20106;-85
2022/08/30 11:58:46;;;;;;;9.95;5.10;;;26.20;47.50;;;;;;7366516;19;20070;-85
2022/08/30 12:01:37;;;;;;;16.35;5.63;;;26.40;47.80;;;;;;7367726;19;20003;-85
2022/08/30 12:04:15;;;;;;;18.90;5.80;;;26.30;47.40;;;;;;7332558;19;20085;-85
2022/08/30 12:07:04;;;;;;;11.40;5.15;;;26.40;47.00;;;;;;7366559;19;20030;-84
2022/08/30 12:10:04;;;;;;;18.23;5.93;;;26.60;47.40;;;;;;7367275;19;20040;-85
2022/08/30 12:13:05;;;;;;;19.27;6.10;;;26.60;46.90;;;;;;7365275;19;20114;-85
2022/08/30 12:15:59;;;;;;;21.20;6.57;;;26.60;47.20;;;;;;7363400;19;20024;-84
2022/08/30 12:18:41;;;;;;;15.50;5.72;;;26.80;46.30;;;;;;7387018;19;20488;-84
2022/08/30 12:21:34;;;;;;;14.38;5.88;;;26.60;46.80;;;;;;7365703;19;20062;-84
2022/08/30 12:24:24;;;;;;;15.38;6.45;;;26.60;47.10;;;;;;7367092;19;20018;-84
2022/08/30 12:26:57;;;;;;;17.67;5.60;;;26.30;47.90;;;;;;7371752;19;20054;-84
2022/08/30 12:29:38;;;;;;;21.00;5.78;;;26.40;48.10;;;;;;7324822;19;20010;-85
2022/08/30 12:32:32;;;;;;;19.35;6.07;;;26.50;48.30;;;;;;7345702;19;20018;-85
2022/08/30 12:35:20;;;;;;;18.67;5.55;;;26.60;47.70;;;;;;7392497;19;20124;-84
2022/08/30 12:38:00;;;;;;;21.02;6.10;;;26.70;48.10;;;;;;7368498;19;20014;-84
2022/08/30 12:40:30;;;;;;;23.33;5.03;;;26.70;47.40;;;;;;7373008;19;20037;-84
2022/08/30 12:43:05;;;;;;;23.17;5.13;;;26.90;47.80;;;;;;7375768;19;20026;-84
2022/08/30 12:45:40;;;;;;;15.02;4.75;;;27.00;47.90;;;;;;7373304;19;20018;-84
2022/08/30 12:48:12;;;;;;;14.02;5.03;;;27.10;47.10;;;;;;7395169;19;20019;-84
2022/08/30 12:50:52;;;;;;;12.00;5.32;;;27.20;47.00;;;;;;7374153;19;20015;-84
2022/08/30 12:53:28;;;;;;;14.95;4.80;;;27.20;46.90;;;;;;7374764;19;20015;-84
2022/08/30 12:56:00;;;;;;;13.48;5.15;;;27.40;47.10;;;;;;7377295;19;20730;-84
2022/08/30 12:58:43;;;;;;;14.75;4.80;;;27.30;47.10;;;;;;7373450;19;20031;-84
2022/08/30 13:01:20;;;;;;;17.52;7.38;;;27.20;47.40;;;;;;7371735;19;20752;-84
2022/08/30 13:04:14;;;;;;;18.58;5.63;;;27.30;48.80;;;;;;7369741;19;20456;-84
2022/08/30 13:07:03;;;;;;;11.50;5.28;;;27.50;48.30;;;;;;7374455;19;20018;-86
2022/08/30 13:09:42;;;;;;;20.38;5.40;;;27.70;47.20;;;;;;7386755;19;20285;-85
2022/08/30 13:12:27;;;;;;;17.63;5.15;;;27.60;46.60;;;;;;7374992;19;20019;-85
2022/08/30 13:15:13;;;;;;;14.18;4.93;;;27.50;46.30;;;;;;7377840;19;20466;-85
2022/08/30 13:18:17;;;;;;;14.60;4.75;;;27.10;47.10;;;;;;7337023;19;20017;-86
2022/08/30 13:21:12;;;;;;;10.52;4.78;;;27.30;47.70;;;;;;7381020;19;20024;-85
2022/08/30 13:24:30;;;;;;;13.18;4.90;;;27.40;47.50;;;;;;7401347;19;20047;-85
2022/08/30 13:27:53;;;;;;;13.05;4.93;;;27.50;47.80;;;;;;7387619;19;20040;-87
2022/08/30 13:30:37;;;;;;;16.92;4.70;;;27.70;48.20;;;;;;7390205;19;20587;-85
2022/08/30 13:33:08;;;;;;;14.43;4.82;;;27.70;47.30;;;;;;7374507;19;20078;-81
2022/08/30 13:35:37;;;;;;;14.75;4.78;;;27.70;46.70;;;;;;7374990;19;20335;-81
2022/08/30 13:38:06;;;;;;;15.07;4.85;;;27.70;46.20;;;;;;7376961;19;20015;-81
2022/08/30 13:40:35;;;;;;;12.43;5.20;;;27.80;45.90;;;;;;7373552;19;20007;-81
2022/08/30 13:43:06;;;;;;;15.75;5.13;;;27.80;45.50;;;;;;7371199;19;20037;-81
2022/08/30 13:45:35;;;;;;;10.65;4.78;;;27.80;46.00;;;;;;7368959;19;20018;-81
2022/08/30 13:48:09;;;;;;;16.02;5.05;;;27.70;46.00;;;;;;7391373;19;20023;-80
2022/08/30 13:50:38;;;;;;;21.95;4.95;;;27.80;46.30;;;;;;7369932;19;20026;-80
2022/08/30 13:53:07;;;;;;;14.93;4.78;;;27.80;46.10;;;;;;7371400;19;20011;-81
2022/08/30 13:55:36;;;;;;;21.00;5.72;;;27.90;45.80;;;;;;7370652;19;20018;-80
2022/08/30 13:58:08;;;;;;;13.77;4.57;;;28.10;45.30;;;;;;7371244;19;20391;-81
2022/08/30 14:00:37;;;;;;;14.80;5.18;;;28.30;44.90;;;;;;7371846;19;20014;-81
2022/08/30 14:03:05;;;;;;;16.20;5.00;;;28.40;44.80;;;;;;7392993;19;20321;-81
2022/08/30 14:05:36;;;;;;;15.60;4.85;;;28.60;45.20;;;;;;7368982;19;20030;-80
2022/08/30 14:08:07;;;;;;;13.37;4.70;;;28.70;44.00;;;;;;7369625;19;20074;-80
2022/08/30 14:10:37;;;;;;;10.55;4.35;;;28.70;43.90;;;;;;7370831;19;20380;-80
2022/08/30 14:13:09;;;;;;;14.63;4.90;;;28.90;43.60;;;;;;7370397;19;20015;-81
2022/08/30 14:15:38;;;;;;;13.68;4.82;;;28.90;43.50;;;;;;7368235;19;20018;-81
2022/08/30 14:18:08;;;;;;;10.38;4.40;;;28.90;42.40;;;;;;7390401;19;20043;-81
2022/08/30 14:20:37;;;;;;;10.25;4.30;;;28.90;42.10;;;;;;7370875;19;20098;-81
2022/08/30 14:23:06;;;;;;;14.38;4.35;;;28.80;42.50;;;;;;7369547;19;20512;-81
2022/08/30 14:25:35;;;;;;;12.27;4.90;;;28.80;43.10;;;;;;7371682;19;20014;-82
2022/08/30 14:28:03;;;;;;;9.32;4.28;;;28.90;43.40;;;;;;7371575;19;20073;-81
2022/08/30 14:30:35;;;;;;;10.63;4.10;;;28.90;42.90;;;;;;7376032;19;20074;-81
2022/08/30 14:33:03;;;;;;;13.45;4.80;;;29.00;42.90;;;;;;7392185;19;20122;-82
2022/08/30 14:35:32;;;;;;;10.45;4.30;;;29.10;42.70;;;;;;7371267;19;20034;-81
2022/08/30 14:38:01;;;;;;;8.43;4.07;;;29.00;42.80;;;;;;7371053;19;20425;-81
2022/08/30 14:40:30;;;;;;;7.65;4.13;;;29.10;42.40;;;;;;7370389;19;20014;-81
2022/08/30 14:42:59;;;;;;;25.15;5.90;;;29.30;42.70;;;;;;7370166;19;20011;-81
2022/08/30 14:45:28;;;;;;;13.07;4.75;;;29.40;42.80;;;;;;7391561;19;20015;-81
2022/08/30 14:48:05;;;;;;;7.95;3.90;;;29.40;42.40;;;;;;7370085;19;20091;-81
2022/08/30 14:50:33;;;;;;;7.53;3.92;;;29.40;41.70;;;;;;7370190;19;20449;-81
2022/08/30 14:53:02;;;;;;;11.00;4.40;;;29.40;42.00;;;;;;7371107;19;20703;-81
2022/08/30 14:55:32;;;;;;;14.68;4.30;;;29.30;41.80;;;;;;7370773;19;20089;-81
2022/08/30 14:58:02;;;;;;;7.53;3.87;;;29.40;41.90;;;;;;7367760;19;20485;-81
2022/08/30 15:00:31;;;;;;;15.60;4.47;;;29.50;41.50;;;;;;7388697;19;20022;-82
2022/08/30 15:03:02;;;;;;;13.50;4.13;;;29.40;41.60;;;;;;7389454;19;20015;-82
2022/08/30 15:05:31;;;;;;;11.73;4.13;;;29.40;41.90;;;;;;7368751;19;20086;-81
2022/08/30 15:08:00;;;;;;;14.98;4.10;;;29.40;41.60;;;;;;7369767;19;20070;-81
2022/08/30 15:10:29;;;;;;;13.38;4.25;;;29.50;41.90;;;;;;7367862;19;20331;-81
2022/08/30 15:12:57;;;;;;;10.30;4.15;;;29.50;41.30;;;;;;7370808;19;20019;-81
2022/08/30 15:15:27;;;;;;;12.75;3.88;;;29.50;40.70;;;;;;7391040;19;20014;-81
2022/08/30 15:17:55;;;;;;;12.20;4.18;;;29.60;40.60;;;;;;7371889;19;20010;-81
2022/08/30 15:20:27;;;;;;;13.25;4.20;;;29.60;40.30;;;;;;7370129;19;20010;-81
2022/08/30 15:22:55;;;;;;;11.38;4.18;;;29.60;40.60;;;;;;7370575;19;20018;-82
2022/08/30 15:25:24;;;;;;;11.45;4.15;;;29.60;40.70;;;;;;7370530;19;20035;-81
2022/08/30 15:27:53;;;;;;;11.80;3.90;;;29.60;40.50;;;;;;7369375;19;20019;-82
2022/08/30 15:30:22;;;;;;;12.35;4.18;;;29.60;40.20;;;;;;7390218;19;20018;-81
2022/08/30 15:32:54;;;;;;;14.65;4.32;;;29.60;40.00;;;;;;7370070;19;20013;-81
2022/08/30 15:35:22;;;;;;;10.23;3.97;;;29.80;40.50;;;;;;7369573;19;20425;-80
2022/08/30 15:37:54;;;;;;;11.85;4.22;;;29.90;40.20;;;;;;7371063;19;20022;-80
2022/08/30 15:40:23;;;;;;;15.00;4.10;;;29.80;39.90;;;;;;7372443;19;20011;-81
2022/08/30 15:42:54;;;;;;;14.07;3.92;;;30.10;39.50;;;;;;7371426;19;20027;-82
2022/08/30 15:45:23;;;;;;;7.20;3.80;;;30.10;40.00;;;;;;7393019;19;20020;-82